Time;durP1;ratioP1;P1;durP2;ratioP2;P2;SDS_P1;SDS_P2;PMS_P1;PMS_P2;Temp;Humidity;BMP_temperature;BMP_pressure;BME280_temperature;BME280_humidity;BME280_pressure;Samples;Min_cycle;Max_cycle;Signal;HPM_P1;HPM_P2
2023/11/21 00:00:50;;;;;;;3.35;2.08;;;;;;;0.95;79.22;100643.16;5066799;28;20551;-65
2023/11/21 00:03:15;;;;;;;3.33;3.03;;;;;;;0.98;79.19;100645.81;5066019;28;20020;-67
2023/11/21 00:05:41;;;;;;;4.20;3.80;;;;;;;0.97;79.20;100639.84;5066714;28;20104;-66
2023/11/21 00:08:07;;;;;;;2.88;1.92;;;;;;;1.06;79.12;100654.63;5066705;28;20028;-67
2023/11/21 00:10:33;;;;;;;3.97;1.70;;;;;;;1.02;79.39;100650.22;5066439;28;20124;-65
2023/11/21 00:12:58;;;;;;;10.80;2.47;;;;;;;1.08;79.21;100657.22;5048923;28;20021;-66
2023/11/21 00:15:23;;;;;;;1.60;1.50;;;;;;;1.11;79.47;100655.66;5066516;28;20036;-67
2023/11/21 00:17:49;;;;;;;1.52;1.42;;;;;;;1.14;79.32;100659.13;5066727;28;20032;-66
2023/11/21 00:20:15;;;;;;;2.22;2.13;;;;;;;1.18;79.34;100660.97;5066640;28;20044;-66
2023/11/21 00:22:40;;;;;;;4.30;2.08;;;;;;;1.19;79.53;100666.16;5048609;28;20056;-66
2023/11/21 00:25:08;;;;;;;3.47;1.85;;;;;;;1.23;79.60;100678.22;5066505;28;20024;-66
2023/11/21 00:27:35;;;;;;;1.83;1.73;;;;;;;1.27;79.66;100662.97;5066540;28;20040;-66
2023/11/21 00:30:00;;;;;;;2.15;1.95;;;;;;;1.33;79.63;100668.28;5048060;28;20080;-65
2023/11/21 00:32:25;;;;;;;0.88;0.88;;;;;;;1.36;79.67;100669.28;5048321;28;20017;-66
2023/11/21 00:34:51;;;;;;;14.32;2.70;;;;;;;1.35;79.91;100667.53;5048148;28;20313;-67
2023/11/21 00:37:16;;;;;;;2.70;2.30;;;;;;;1.21;79.98;100649.19;5066347;28;20087;-65
2023/11/21 00:39:41;;;;;;;2.35;1.25;;;;;;;1.38;79.90;100676.13;5066319;28;20454;-66
2023/11/21 00:42:08;;;;;;;1.90;1.63;;;;;;;1.39;79.98;100678.72;5066891;28;20024;-67
2023/11/21 00:44:34;;;;;;;2.65;1.55;;;;;;;1.39;80.07;100681.28;5065827;28;20024;-66
2023/11/21 00:46:59;;;;;;;12.18;3.13;;;;;;;1.41;80.10;100687.34;5066379;28;20084;-67
2023/11/21 00:49:25;;;;;;;1.08;0.85;;;;;;;1.43;80.22;100690.81;5066057;28;20025;-66
2023/11/21 00:51:50;;;;;;;2.08;1.27;;;;;;;1.48;80.25;100696.97;5048110;28;20025;-66
2023/11/21 00:54:17;;;;;;;1.05;0.98;;;;;;;1.49;80.34;100697.81;5065619;28;20029;-66
2023/11/21 00:56:43;;;;;;;3.08;2.83;;;;;;;1.46;80.29;100698.59;5065973;28;20048;-66
2023/11/21 00:59:08;;;;;;;2.00;1.85;;;;;;;1.48;80.01;100699.53;5065375;28;20052;-66
2023/11/21 01:01:34;;;;;;;2.13;1.80;;;;;;;1.55;80.24;100712.53;5065974;28;20377;-67
2023/11/21 01:03:59;;;;;;;9.05;3.13;;;;;;;1.58;80.22;100712.63;5065410;28;20039;-65
2023/11/21 01:06:25;;;;;;;4.10;1.67;;;;;;;1.47;80.22;100690.09;5065863;28;20032;-66
2023/11/21 01:08:50;;;;;;;3.10;2.20;;;;;;;1.42;80.20;100683.94;5065663;28;20075;-66
2023/11/21 01:11:16;;;;;;;5.40;3.22;;;;;;;1.52;80.12;100699.63;5065359;28;20079;-66
2023/11/21 01:13:42;;;;;;;6.80;1.58;;;;;;;1.57;80.08;100709.19;5065693;28;20021;-66
2023/11/21 01:16:08;;;;;;;3.80;3.28;;;;;;;1.58;80.10;100718.59;5065049;28;20068;-65
2023/11/21 01:18:35;;;;;;;3.30;2.60;;;;;;;1.55;79.85;100702.28;5065521;28;20025;-66
2023/11/21 01:21:00;;;;;;;5.78;1.92;;;;;;;1.56;80.00;100704.91;5065696;28;20116;-67
2023/11/21 01:23:26;;;;;;;9.25;3.65;;;;;;;1.61;80.14;100716.16;5065769;28;20025;-66
2023/11/21 01:25:52;;;;;;;6.95;3.90;;;;;;;1.53;80.08;100711.59;5065147;28;20417;-66
2023/11/21 01:28:17;;;;;;;1.55;1.45;;;;;;;1.59;79.98;100722.91;5065421;28;20060;-67
2023/11/21 01:30:44;;;;;;;3.17;2.30;;;;;;;1.58;80.05;100726.28;5065039;28;20025;-65
2023/11/21 01:33:09;;;;;;;2.85;2.40;;;;;;;1.58;80.10;100722.88;5047380;28;20033;-65
2023/11/21 01:35:35;;;;;;;7.45;3.08;;;;;;;1.54;80.25;100724.44;5065398;28;20033;-66
2023/11/21 01:38:01;;;;;;;8.52;3.05;;;;;;;1.56;80.17;100732.19;5065105;28;20021;-67
2023/11/21 01:40:26;;;;;;;6.15;3.55;;;;;;;1.48;80.21;100721.69;5064965;28;20013;-67
2023/11/21 01:42:53;;;;;;;1.75;1.65;;;;;;;1.51;80.21;100742.25;5065232;28;20025;-66
2023/11/21 01:45:18;;;;;;;1.45;1.05;;;;;;;1.43;80.04;100728.31;5065102;28;20056;-67
2023/11/21 01:47:44;;;;;;;4.38;3.00;;;;;;;1.48;80.29;100744.72;5065402;28;20021;-65
2023/11/21 01:50:15;;;;;;;22.77;3.25;;;;;;;1.43;80.42;100736.88;5047104;28;20148;-66
2023/11/21 01:52:44;;;;;;;2.25;2.05;;;;;;;1.40;80.42;100738.47;5065190;28;20167;-65
2023/11/21 01:55:10;;;;;;;7.68;2.75;;;;;;;1.45;80.51;100754.84;5064797;28;20048;-66
2023/11/21 01:57:39;;;;;;;2.88;2.00;;;;;;;1.44;80.76;100753.09;5064791;28;20094;-66
2023/11/21 02:00:17;;;;;;;4.40;3.08;;;;;;;1.38;80.90;100758.88;5064841;28;20048;-65
2023/11/21 02:02:46;;;;;;;2.78;2.55;;;;;;;1.39;80.93;100760.59;5065255;28;20040;-66
2023/11/21 02:05:18;;;;;;;2.58;2.38;;;;;;;1.40;80.87;100764.03;5046695;28;20029;-66
2023/11/21 02:07:44;;;;;;;3.17;2.65;;;;;;;1.37;81.01;100764.81;5047183;28;20028;-66
2023/11/21 02:10:14;;;;;;;2.03;1.85;;;;;;;1.34;81.26;100770.69;5064671;28;20384;-66
2023/11/21 02:12:40;;;;;;;1.55;1.42;;;;;;;1.35;81.08;100767.31;5064944;28;20025;-67
2023/11/21 02:15:09;;;;;;;2.70;1.42;;;;;;;1.35;81.28;100769.00;5046847;28;20039;-66
2023/11/21 02:17:35;;;;;;;5.35;3.30;;;;;;;1.38;81.23;100768.22;5065032;28;20088;-66
2023/11/21 02:20:01;;;;;;;4.20;1.48;;;;;;;1.38;81.22;100768.22;5064840;28;20032;-66
2023/11/21 02:22:32;;;;;;;2.75;2.28;;;;;;;1.37;81.26;100772.50;5064827;28;20025;-66
2023/11/21 02:24:58;;;;;;;0.88;0.88;;;;;;;1.41;81.37;100778.56;5064618;28;20055;-66
2023/11/21 02:27:24;;;;;;;3.05;1.95;;;;;;;1.42;81.31;100781.19;5066446;28;20029;-67
2023/11/21 02:29:49;;;;;;;1.55;1.48;;;;;;;1.41;81.47;100786.25;5068982;28;20037;-66
2023/11/21 02:32:16;;;;;;;1.60;1.50;;;;;;;1.39;81.36;100785.34;5068760;28;20021;-67
2023/11/21 02:34:43;;;;;;;3.67;2.83;;;;;;;1.39;81.37;100790.47;5068674;28;20029;-66
2023/11/21 02:37:08;;;;;;;5.72;1.98;;;;;;;1.42;81.21;100796.53;5050781;28;20031;-67
2023/11/21 02:39:34;;;;;;;3.10;1.95;;;;;;;1.41;81.45;100796.47;5050439;28;20021;-68
2023/11/21 02:41:59;;;;;;;2.50;2.22;;;;;;;1.44;81.50;100800.03;5068607;28;20021;-66
2023/11/21 02:44:26;;;;;;;5.78;2.67;;;;;;;1.48;81.25;100796.78;5068183;28;20052;-67
2023/11/21 02:46:51;;;;;;;5.78;3.22;;;;;;;1.43;81.70;100787.19;5068452;28;20021;-65
2023/11/21 02:49:17;;;;;;;1.27;1.17;;;;;;;1.41;81.51;100799.91;5068396;28;20106;-65
2023/11/21 02:51:42;;;;;;;1.75;1.65;;;;;;;1.41;81.72;100802.47;5068307;28;20017;-67
2023/11/21 02:54:08;;;;;;;1.83;1.73;;;;;;;1.41;81.94;100802.47;5068384;28;20084;-67
2023/11/21 02:56:33;;;;;;;2.47;1.95;;;;;;;1.43;81.89;100817.88;5069313;28;20051;-66
2023/11/21 02:59:00;;;;;;;4.68;2.88;;;;;;;1.43;81.83;100813.66;5067910;28;20028;-66
2023/11/21 03:01:27;;;;;;;3.75;3.38;;;;;;;1.51;81.93;100816.47;5068317;28;20067;-66
2023/11/21 03:03:52;;;;;;;6.28;4.03;;;;;;;1.52;81.78;100819.91;5068319;28;20036;-66
2023/11/21 03:06:19;;;;;;;4.05;1.80;;;;;;;1.54;81.85;100825.94;5068122;28;20036;-66
2023/11/21 03:08:45;;;;;;;3.03;1.85;;;;;;;1.57;81.63;100826.91;5068211;28;20100;-66
2023/11/21 03:11:11;;;;;;;2.83;2.15;;;;;;;1.53;81.63;100816.53;5067732;28;20037;-66
2023/11/21 03:13:36;;;;;;;7.40;3.03;;;;;;;1.58;81.19;100820.13;5068176;28;20059;-65
2023/11/21 03:16:01;;;;;;;4.07;2.17;;;;;;;1.59;81.47;100829.53;5067768;28;20021;-66
2023/11/21 03:18:29;;;;;;;1.50;1.40;;;;;;;1.60;81.40;100831.25;5067959;28;20027;-66
2023/11/21 03:20:54;;;;;;;1.88;1.77;;;;;;;1.60;81.56;100831.25;5049841;28;20024;-65
2023/11/21 03:23:20;;;;;;;4.47;2.78;;;;;;;1.57;81.29;100832.03;5067771;28;20069;-66
2023/11/21 03:25:45;;;;;;;4.97;2.58;;;;;;;1.56;81.43;100834.53;5067735;28;20025;-65
2023/11/21 03:28:10;;;;;;;0.70;0.70;;;;;;;1.55;81.77;100840.50;5067939;28;20021;-65
2023/11/21 03:30:36;;;;;;;2.78;1.85;;;;;;;1.54;81.55;100847.28;5067712;28;20025;-65
2023/11/21 03:33:01;;;;;;;2.10;1.92;;;;;;;1.49;81.50;100836.00;5067735;28;20021;-66
2023/11/21 03:35:26;;;;;;;3.72;2.83;;;;;;;1.51;81.52;100843.75;5067344;28;20021;-66
2023/11/21 03:37:52;;;;;;;3.58;2.70;;;;;;;1.52;81.53;100842.94;5067780;28;20096;-66
2023/11/21 03:40:17;;;;;;;4.40;1.95;;;;;;;1.52;81.67;100848.06;5067708;28;20036;-66
2023/11/21 03:42:42;;;;;;;1.65;1.55;;;;;;;1.53;81.91;100849.78;5067616;28;20021;-66
2023/11/21 03:45:08;;;;;;;1.25;1.15;;;;;;;1.51;81.72;100856.53;5067164;28;20024;-65
2023/11/21 03:47:34;;;;;;;0.70;0.70;;;;;;;1.46;82.06;100864.94;5067396;28;20025;-66
2023/11/21 03:49:59;;;;;;;2.15;1.40;;;;;;;1.49;82.02;100864.16;5067117;28;20044;-66
2023/11/21 03:52:25;;;;;;;4.03;2.88;;;;;;;1.47;82.23;100866.66;5067277;28;20029;-65
2023/11/21 03:54:50;;;;;;;1.70;1.60;;;;;;;1.46;82.12;100864.03;5067135;28;20074;-66
2023/11/21 03:57:15;;;;;;;3.22;1.95;;;;;;;1.50;82.15;100870.16;5066851;28;20095;-66
2023/11/21 03:59:42;;;;;;;2.47;2.00;;;;;;;1.49;82.24;100874.38;5066974;28;20130;-67
2023/11/21 04:02:07;;;;;;;1.90;1.80;;;;;;;1.48;82.10;100883.78;5067066;28;20017;-65
2023/11/21 04:04:33;;;;;;;2.25;2.08;;;;;;;1.48;82.18;100881.22;5066784;28;20039;-66
2023/11/21 04:06:59;;;;;;;1.13;1.10;;;;;;;1.47;82.27;100882.00;5066999;28;20025;-66
2023/11/21 04:09:25;;;;;;;2.20;2.10;;;;;;;1.48;82.11;100888.00;5066894;28;20028;-66
2023/11/21 04:11:51;;;;;;;2.05;1.45;;;;;;;1.35;82.27;100871.34;5066730;28;20053;-66
2023/11/21 04:14:16;;;;;;;1.27;1.27;;;;;;;1.48;82.27;100895.69;5048437;28;20108;-65
2023/11/21 04:16:42;;;;;;;1.95;1.85;;;;;;;1.50;82.35;100895.75;5049114;28;20028;-67
2023/11/21 04:19:09;;;;;;;4.60;1.27;;;;;;;1.47;82.31;100899.06;5048632;28;20017;-66
2023/11/21 04:21:34;;;;;;;7.43;2.00;;;;;;;1.44;82.36;100902.38;5066574;28;20234;-66
2023/11/21 04:23:59;;;;;;;4.95;2.78;;;;;;;1.45;82.32;100909.22;5066647;28;20013;-66
2023/11/21 04:26:25;;;;;;;4.35;1.92;;;;;;;1.41;82.23;100899.69;5066782;28;20052;-67
2023/11/21 04:28:50;;;;;;;2.35;2.17;;;;;;;1.43;82.36;100913.44;5066879;28;20027;-67
2023/11/21 04:31:15;;;;;;;1.98;1.80;;;;;;;1.39;82.44;100903.03;5066271;28;20029;-66
2023/11/21 04:33:41;;;;;;;2.20;2.00;;;;;;;1.40;82.55;100902.22;5066386;28;20476;-66
2023/11/21 04:36:07;;;;;;;0.70;0.70;;;;;;;1.40;82.48;100915.00;5066560;28;20031;-67
2023/11/21 04:38:32;;;;;;;3.42;2.63;;;;;;;1.40;82.59;100918.44;5066667;28;20366;-66
2023/11/21 04:40:58;;;;;;;1.55;1.45;;;;;;;1.37;82.51;100931.13;5066357;28;20025;-66
2023/11/21 04:43:23;;;;;;;2.22;1.63;;;;;;;1.37;82.56;100926.00;5066200;28;20047;-67
2023/11/21 04:45:49;;;;;;;1.42;0.95;;;;;;;1.37;82.72;100931.13;5065832;28;20053;-67
2023/11/21 04:48:14;;;;;;;8.48;2.63;;;;;;;1.26;82.77;100920.47;5048006;28;20021;-66
2023/11/21 04:50:39;;;;;;;1.40;1.30;;;;;;;1.30;82.74;100930.00;5065306;28;20021;-66
2023/11/21 04:53:05;;;;;;;1.42;1.33;;;;;;;1.28;82.74;100936.75;5066217;28;20028;-65
2023/11/21 04:55:30;;;;;;;1.40;1.30;;;;;;;1.28;82.90;100944.41;5065745;28;20465;-66
2023/11/21 04:57:56;;;;;;;0.50;0.50;;;;;;;1.22;82.83;100939.94;5066210;28;20041;-65
2023/11/21 05:00:21;;;;;;;1.75;1.65;;;;;;;1.23;82.96;100949.34;5065606;28;20021;-67
2023/11/21 05:02:47;;;;;;;2.17;0.90;;;;;;;1.24;83.10;100965.59;5065988;28;20047;-66
2023/11/21 05:05:14;;;;;;;1.10;1.08;;;;;;;1.24;83.00;100963.03;5065700;28;20552;-67
2023/11/21 05:07:41;;;;;;;3.35;1.90;;;;;;;1.29;83.10;100963.19;5047793;28;20027;-66
2023/11/21 05:10:14;;;;;;;2.20;1.67;;;;;;;1.29;83.17;100969.19;5047596;28;20017;-68
2023/11/21 05:12:43;;;;;;;3.97;3.38;;;;;;;1.27;83.10;100970.81;5065845;28;20469;-67
2023/11/21 05:15:12;;;;;;;0.93;0.73;;;;;;;1.34;83.01;100975.34;5066131;28;20025;-66
2023/11/21 05:17:41;;;;;;;3.80;2.78;;;;;;;1.39;82.94;100987.47;5065838;28;20036;-67
2023/11/21 05:20:09;;;;;;;1.33;1.08;;;;;;;1.35;82.73;100974.56;5047765;28;20027;-67
2023/11/21 05:22:35;;;;;;;8.00;2.75;;;;;;;1.37;82.75;100982.28;5065535;28;20031;-67
2023/11/21 05:25:02;;;;;;;1.42;0.95;;;;;;;1.35;82.74;100994.13;5047411;28;20052;-66
2023/11/21 05:27:28;;;;;;;2.05;1.95;;;;;;;1.18;82.62;100991.78;5065450;28;20112;-67
2023/11/21 05:29:53;;;;;;;0.95;0.95;;;;;;;1.18;82.86;100996.03;5047237;28;20074;-69
2023/11/21 05:32:18;;;;;;;1.13;1.02;;;;;;;1.15;82.86;100996.78;5047413;28;20434;-70
2023/11/21 05:34:44;;;;;;;1.85;1.75;;;;;;;1.11;83.00;101005.16;5064820;28;20031;-69
2023/11/21 05:37:09;;;;;;;1.08;1.08;;;;;;;1.11;82.95;101005.16;5065192;28;20017;-69
2023/11/21 05:39:35;;;;;;;1.05;1.02;;;;;;;1.04;82.99;101005.72;5047114;28;20119;-69
2023/11/21 05:42:01;;;;;;;0.98;0.98;;;;;;;1.10;82.84;101026.44;5065347;28;20021;-70
2023/11/21 05:44:26;;;;;;;1.65;1.02;;;;;;;1.04;82.86;101021.06;5064954;28;20031;-70
2023/11/21 05:46:52;;;;;;;1.77;1.65;;;;;;;0.99;83.04;101029.41;5065027;28;20032;-70
2023/11/21 05:49:17;;;;;;;0.73;0.73;;;;;;;0.90;83.13;101016.25;5064793;28;20021;-71
2023/11/21 05:51:47;;;;;;;3.13;0.85;;;;;;;0.86;83.20;101014.38;5064920;28;20472;-70
2023/11/21 05:54:12;;;;;;;2.55;2.33;;;;;;;0.91;82.99;101032.47;5047120;28;20128;-71
2023/11/21 05:56:37;;;;;;;1.33;1.27;;;;;;;0.90;83.17;101036.69;5064846;28;20021;-70
2023/11/21 05:59:03;;;;;;;1.35;1.23;;;;;;;0.90;83.12;101041.81;5064788;28;20028;-68
2023/11/21 06:01:28;;;;;;;1.42;1.33;;;;;;;0.90;83.22;101049.47;5063944;28;20031;-70
2023/11/21 06:03:54;;;;;;;0.95;0.95;;;;;;;0.90;83.08;101041.81;5064859;28;20032;-70
2023/11/21 06:06:22;;;;;;;1.58;1.48;;;;;;;0.91;83.19;101050.38;5064859;28;20032;-70
2023/11/21 06:08:50;;;;;;;1.38;1.08;;;;;;;0.85;83.22;101050.97;5064876;28;20100;-70
2023/11/21 06:11:16;;;;;;;2.90;2.70;;;;;;;0.91;83.14;101074.22;5064659;28;20068;-71
2023/11/21 06:13:41;;;;;;;1.35;1.25;;;;;;;0.88;83.26;101063.88;5047086;28;20033;-70
2023/11/21 06:16:07;;;;;;;1.08;0.98;;;;;;;0.93;83.19;101075.19;5064638;28;20032;-70
2023/11/21 06:18:32;;;;;;;1.85;1.75;;;;;;;0.92;83.05;101082.78;5064979;28;20024;-71
2023/11/21 06:21:00;;;;;;;0.98;0.98;;;;;;;0.91;83.12;101084.47;5064847;28;20021;-71
2023/11/21 06:23:26;;;;;;;1.75;1.30;;;;;;;0.90;83.13;101085.28;5064528;28;20036;-69
2023/11/21 06:25:51;;;;;;;4.25;1.10;;;;;;;0.94;83.19;101101.63;5064732;28;20025;-71
2023/11/21 06:28:17;;;;;;;0.85;0.85;;;;;;;0.92;83.04;101095.56;5064904;28;20021;-70
2023/11/21 06:30:44;;;;;;;0.60;0.60;;;;;;;0.93;83.10;101105.88;5046705;28;20025;-71
2023/11/21 06:33:10;;;;;;;4.70;1.58;;;;;;;0.93;83.13;101107.53;5046771;28;20021;-70
2023/11/21 06:35:35;;;;;;;1.60;1.50;;;;;;;0.93;83.26;101118.66;5064479;28;20047;-66
2023/11/21 06:38:01;;;;;;;1.92;1.83;;;;;;;0.94;83.13;101115.25;5064782;28;20074;-67
2023/11/21 06:40:26;;;;;;;1.60;1.50;;;;;;;0.94;83.16;101109.31;5063629;28;20021;-66
2023/11/21 06:42:52;;;;;;;0.93;0.93;;;;;;;0.97;83.04;101128.22;5064669;28;20031;-66
2023/11/21 06:45:17;;;;;;;2.80;2.30;;;;;;;0.93;83.04;101122.88;5064323;28;20028;-66
2023/11/21 06:47:43;;;;;;;1.85;1.00;;;;;;;0.97;83.14;101123.09;5064548;28;20448;-66
2023/11/21 06:50:08;;;;;;;21.95;2.58;;;;;;;1.07;83.13;101146.50;5046367;28;20025;-67
2023/11/21 06:52:34;;;;;;;14.93;2.88;;;;;;;1.02;83.05;101130.09;5046456;28;20029;-66
2023/11/21 06:54:59;;;;;;;1.77;1.55;;;;;;;1.04;82.93;101147.22;5064347;28;20032;-66
2023/11/21 06:57:25;;;;;;;1.35;1.25;;;;;;;1.04;82.95;101148.94;5064182;28;20075;-66
2023/11/21 06:59:50;;;;;;;5.55;3.45;;;;;;;1.10;82.85;101141.50;5064335;28;20021;-65
2023/11/21 07:02:18;;;;;;;1.38;1.27;;;;;;;1.13;82.74;101145.88;5064369;28;20350;-66
2023/11/21 07:04:46;;;;;;;1.40;1.33;;;;;;;1.11;82.88;101154.38;5064393;28;20032;-65
2023/11/21 07:07:12;;;;;;;1.48;1.13;;;;;;;1.15;83.00;101160.47;5064409;28;20029;-66
2023/11/21 07:09:38;;;;;;;2.45;2.25;;;;;;;1.17;83.05;101161.41;5046271;28;20027;-67
2023/11/21 07:12:06;;;;;;;3.42;3.17;;;;;;;1.18;82.99;101164.84;5046114;28;20053;-65
2023/11/21 07:14:32;;;;;;;2.38;1.02;;;;;;;1.17;82.98;101168.22;5066573;28;20088;-66
2023/11/21 07:16:57;;;;;;;2.00;1.23;;;;;;;1.18;83.07;101165.72;5068181;28;20036;-66
2023/11/21 07:19:22;;;;;;;1.83;1.73;;;;;;;1.19;82.89;101169.16;5067961;28;20025;-66
2023/11/21 07:21:50;;;;;;;2.42;2.20;;;;;;;1.21;83.07;101173.53;5068091;28;20070;-66
2023/11/21 07:24:16;;;;;;;2.83;2.63;;;;;;;1.27;82.97;101177.16;5068031;28;20075;-66
2023/11/21 07:26:41;;;;;;;3.00;2.35;;;;;;;1.26;83.00;101183.09;5067695;28;20028;-66
2023/11/21 07:29:07;;;;;;;2.03;1.13;;;;;;;1.31;82.93;101186.72;5067967;28;20021;-66
2023/11/21 07:31:35;;;;;;;1.85;1.35;;;;;;;1.30;82.85;101184.94;5067554;28;20033;-66
2023/11/21 07:34:01;;;;;;;1.42;1.33;;;;;;;1.32;82.75;101181.66;5067750;28;20025;-66
2023/11/21 07:36:27;;;;;;;3.80;2.22;;;;;;;1.38;82.77;101198.06;5067537;28;20106;-66
2023/11/21 07:38:53;;;;;;;1.50;1.27;;;;;;;1.37;82.79;101202.34;5067709;28;20103;-65
2023/11/21 07:41:18;;;;;;;0.88;0.88;;;;;;;1.39;82.82;101205.81;5067444;28;20021;-66
2023/11/21 07:43:45;;;;;;;2.45;2.25;;;;;;;1.38;82.86;101198.94;5066982;28;20037;-67
2023/11/21 07:46:12;;;;;;;1.42;1.35;;;;;;;1.43;82.82;101212.81;5066796;28;20092;-66
2023/11/21 07:48:38;;;;;;;0.70;0.70;;;;;;;1.46;82.68;101207.84;5067295;28;20044;-66
2023/11/21 07:51:03;;;;;;;1.13;0.75;;;;;;;1.33;82.76;101197.88;5067136;28;20032;-67
2023/11/21 07:53:30;;;;;;;1.20;1.10;;;;;;;1.40;82.69;101216.94;5049468;28;20459;-65
2023/11/21 07:55:59;;;;;;;2.35;2.15;;;;;;;1.44;82.71;101219.69;5067179;28;20103;-66
2023/11/21 07:58:24;;;;;;;0.95;0.90;;;;;;;1.48;82.77;101216.47;5067261;28;20025;-66
2023/11/21 08:00:50;;;;;;;0.88;0.88;;;;;;;1.47;82.59;101222.38;5067086;28;20017;-67
2023/11/21 08:03:16;;;;;;;1.65;1.20;;;;;;;1.47;82.48;101216.41;5067293;28;20515;-67
2023/11/21 08:05:42;;;;;;;4.10;2.25;;;;;;;1.43;82.62;101211.94;5066890;28;20032;-67
2023/11/21 08:08:07;;;;;;;3.50;1.48;;;;;;;1.43;82.57;101217.06;5066898;28;20029;-67
2023/11/21 08:10:33;;;;;;;0.98;0.98;;;;;;;1.40;82.71;101222.94;5066463;28;20152;-67
2023/11/21 08:12:59;;;;;;;4.43;2.63;;;;;;;1.38;82.61;101229.66;5067029;28;20039;-66
2023/11/21 08:15:24;;;;;;;1.50;1.40;;;;;;;1.40;82.71;101230.59;5066682;28;20024;-66
2023/11/21 08:17:49;;;;;;;4.00;1.95;;;;;;;1.39;82.82;101228.84;5066748;28;20029;-66
2023/11/21 08:20:16;;;;;;;1.30;1.13;;;;;;;1.37;82.74;101230.47;5066513;28;20024;-66
2023/11/21 08:22:44;;;;;;;0.80;0.80;;;;;;;1.37;82.57;101240.72;5067004;28;20029;-66
2023/11/21 08:25:09;;;;;;;1.40;1.30;;;;;;;1.39;82.65;101241.63;5065543;28;20025;-65
2023/11/21 08:27:35;;;;;;;1.23;1.23;;;;;;;1.40;82.85;101243.41;5066745;28;20055;-65
2023/11/21 08:30:02;;;;;;;2.92;1.15;;;;;;;1.35;82.48;101238.09;5048382;28;20028;-66
2023/11/21 08:32:29;;;;;;;1.33;1.23;;;;;;;1.38;82.57;101255.25;5066459;28;20017;-66
2023/11/21 08:34:55;;;;;;;3.33;3.03;;;;;;;1.39;82.44;101251.00;5048490;28;20078;-65
2023/11/21 08:37:20;;;;;;;1.50;1.40;;;;;;;1.39;82.52;101253.56;5066648;28;20032;-66
2023/11/21 08:39:48;;;;;;;2.30;2.10;;;;;;;1.38;82.41;101256.91;5066300;28;20017;-65
2023/11/21 08:42:14;;;;;;;1.90;1.73;;;;;;;1.37;82.45;101258.63;5066247;28;20027;-66
2023/11/21 08:44:39;;;;;;;1.20;1.15;;;;;;;1.34;82.71;101254.22;5066008;28;20021;-65
2023/11/21 08:47:05;;;;;;;1.30;1.25;;;;;;;1.37;82.36;101263.75;5066525;28;20025;-67
2023/11/21 08:49:30;;;;;;;1.58;1.48;;;;;;;1.37;82.46;101268.84;5048368;28;20029;-66
2023/11/21 08:51:57;;;;;;;2.42;1.10;;;;;;;1.41;82.54;101274.97;5048147;28;20104;-65
2023/11/21 08:54:22;;;;;;;0.85;0.82;;;;;;;1.43;82.53;101281.03;5065782;28;20036;-65
2023/11/21 08:56:48;;;;;;;1.83;1.40;;;;;;;1.47;82.41;101290.59;5065959;28;20135;-65
2023/11/21 08:59:14;;;;;;;1.33;1.23;;;;;;;1.47;82.30;101299.13;5066049;28;20045;-64
2023/11/21 09:01:39;;;;;;;1.70;1.55;;;;;;;1.42;82.39;101290.38;5065914;28;20410;-66
2023/11/21 09:04:05;;;;;;;0.90;0.90;;;;;;;1.44;82.52;101295.56;5065735;28;20029;-65
2023/11/21 09:06:30;;;;;;;0.82;0.82;;;;;;;1.45;81.94;101297.34;5065745;28;20591;-65
2023/11/21 09:08:56;;;;;;;0.63;0.63;;;;;;;1.40;82.46;101304.81;5065721;28;20031;-66
2023/11/21 09:11:21;;;;;;;2.30;1.60;;;;;;;1.38;82.43;101297.84;5065489;28;20052;-65
2023/11/21 09:13:46;;;;;;;1.65;1.55;;;;;;;1.35;82.52;101298.63;5065536;28;20388;-67
2023/11/21 09:16:13;;;;;;;3.13;2.20;;;;;;;1.36;82.68;101305.47;5065488;28;20023;-66
2023/11/21 09:18:39;;;;;;;1.00;0.90;;;;;;;1.40;82.77;101309.03;5065606;28;20056;-65
2023/11/21 09:21:05;;;;;;;2.28;2.08;;;;;;;1.40;82.78;101315.06;5065598;28;20020;-66
2023/11/21 09:23:30;;;;;;;1.95;1.85;;;;;;;1.46;82.62;101324.66;5065683;28;20082;-65
2023/11/21 09:25:57;;;;;;;1.75;1.65;;;;;;;1.47;82.48;101311.94;5065449;28;20025;-66
2023/11/21 09:28:22;;;;;;;1.73;1.63;;;;;;;1.52;82.53;101324.94;5065749;28;20017;-66
2023/11/21 09:30:49;;;;;;;6.32;1.05;;;;;;;1.55;82.51;101332.75;5065266;28;20028;-65
2023/11/21 09:33:14;;;;;;;1.73;1.63;;;;;;;1.54;82.04;101322.44;5065511;28;20032;-66
2023/11/21 09:35:40;;;;;;;2.45;1.70;;;;;;;1.53;82.50;101323.25;5065179;28;20372;-64
2023/11/21 09:38:09;;;;;;;1.25;1.20;;;;;;;1.58;82.42;101332.03;5065343;28;20024;-66
2023/11/21 09:40:35;;;;;;;1.80;1.70;;;;;;;1.58;82.13;101330.31;5065188;28;20021;-65
2023/11/21 09:43:08;;;;;;;1.58;1.48;;;;;;;1.59;82.16;101336.31;5064958;28;20423;-66
2023/11/21 09:45:39;;;;;;;1.20;0.85;;;;;;;1.64;82.27;101342.53;5064950;28;20029;-66
2023/11/21 09:48:06;;;;;;;2.20;2.03;;;;;;;1.65;82.27;101335.69;5065473;28;20080;-66
2023/11/21 09:50:33;;;;;;;2.85;2.13;;;;;;;1.65;82.08;101341.72;5065081;28;20021;-65
2023/11/21 09:53:00;;;;;;;0.85;0.85;;;;;;;1.72;81.78;101346.31;5065136;28;20236;-66
2023/11/21 09:55:29;;;;;;;1.52;1.42;;;;;;;1.70;81.90;101360.72;5065081;28;20031;-66
2023/11/21 09:57:56;;;;;;;2.30;1.08;;;;;;;1.68;81.98;101349.53;5065002;28;20036;-65
2023/11/21 10:00:23;;;;;;;1.70;1.20;;;;;;;1.72;81.86;101356.53;5046830;28;20392;-66
2023/11/21 10:02:49;;;;;;;1.95;1.65;;;;;;;1.70;81.85;101354.69;5047031;28;20087;-65
2023/11/21 10:05:15;;;;;;;0.73;0.73;;;;;;;1.68;81.90;101356.31;5064613;28;20395;-66
2023/11/21 10:07:44;;;;;;;2.33;2.22;;;;;;;1.79;81.41;101364.50;5064943;28;20465;-65
2023/11/21 10:10:10;;;;;;;0.65;0.65;;;;;;;1.69;81.38;101363.22;5064642;28;20025;-65
2023/11/21 10:12:35;;;;;;;3.35;1.70;;;;;;;1.76;81.75;101379.72;5064993;28;20108;-67
2023/11/21 10:15:05;;;;;;;1.35;1.00;;;;;;;1.79;81.85;101383.25;5046913;28;20025;-66
2023/11/21 10:17:39;;;;;;;2.38;1.30;;;;;;;1.84;81.75;101374.09;5064750;28;20028;-66
2023/11/21 10:20:11;;;;;;;1.65;1.55;;;;;;;1.87;81.50;101378.47;5064762;28;20025;-66
2023/11/21 10:22:41;;;;;;;2.00;1.70;;;;;;;1.90;80.92;101383.72;5064835;28;20017;-66
2023/11/21 10:25:08;;;;;;;1.85;1.75;;;;;;;1.86;80.75;101381.84;5064539;28;20048;-66
2023/11/21 10:27:34;;;;;;;2.38;1.35;;;;;;;1.81;80.54;101389.34;5065064;28;20017;-66
2023/11/21 10:30:02;;;;;;;1.00;0.88;;;;;;;1.81;80.82;101391.91;5064615;28;20025;-65
2023/11/21 10:32:30;;;;;;;1.63;1.52;;;;;;;1.82;80.49;101392.78;5064602;28;20022;-65
2023/11/21 10:34:57;;;;;;;1.10;1.00;;;;;;;1.81;80.60;101398.69;5064662;28;20031;-66
2023/11/21 10:37:22;;;;;;;1.58;1.48;;;;;;;1.77;80.74;101400.25;5064654;28;20021;-65
2023/11/21 10:39:47;;;;;;;1.25;1.15;;;;;;;1.78;80.87;101393.44;5064704;28;20420;-65
2023/11/21 10:42:13;;;;;;;1.80;1.23;;;;;;;1.77;80.18;101395.16;5064530;28;20028;-65
2023/11/21 10:44:38;;;;;;;1.23;0.95;;;;;;;1.78;80.13;101398.56;5064253;28;20021;-65
2023/11/21 10:47:05;;;;;;;2.13;1.13;;;;;;;1.72;79.62;101410.31;5047041;28;20522;-65
2023/11/21 10:49:30;;;;;;;0.98;0.95;;;;;;;1.80;79.81;101417.44;5049871;28;20092;-65
2023/11/21 10:51:56;;;;;;;1.65;1.55;;;;;;;1.71;79.79;101415.34;5068607;28;20024;-64
2023/11/21 10:54:25;;;;;;;2.25;2.15;;;;;;;1.76;80.22;101424.09;5068712;28;20025;-66
2023/11/21 10:56:53;;;;;;;1.45;1.35;;;;;;;1.76;80.13;101416.41;5068458;28;20028;-65
2023/11/21 10:59:20;;;;;;;1.42;0.82;;;;;;;1.76;79.88;101426.66;5068525;28;20029;-66
2023/11/21 11:01:49;;;;;;;1.63;1.35;;;;;;;1.80;79.76;101425.13;5068044;28;20032;-65
2023/11/21 11:04:16;;;;;;;1.17;1.08;;;;;;;1.82;79.84;101423.50;5068263;28;20032;-66
2023/11/21 11:06:51;;;;;;;1.58;1.38;;;;;;;1.91;79.56;101441.84;5068332;28;20024;-65
2023/11/21 11:09:17;;;;;;;4.18;0.90;;;;;;;1.92;79.60;101430.78;5068167;28;20028;-65
2023/11/21 11:11:45;;;;;;;1.88;1.52;;;;;;;1.97;79.52;101431.88;5067843;28;20045;-66
2023/11/21 11:14:12;;;;;;;8.02;2.72;;;;;;;1.95;79.51;101425.78;5068092;28;20028;-65
2023/11/21 11:16:41;;;;;;;0.85;0.85;;;;;;;1.98;79.72;101425.91;5049819;28;20029;-67
2023/11/21 11:19:10;;;;;;;1.80;1.02;;;;;;;2.06;79.81;101428.81;5068038;28;20017;-65
2023/11/21 11:21:57;;;;;;;1.65;1.35;;;;;;;2.16;79.66;101436.88;5067965;28;20023;-65
2023/11/21 11:24:44;;;;;;;1.83;1.42;;;;;;;2.19;79.46;101435.34;5067850;28;20151;-66
2023/11/21 11:27:30;;;;;;;1.73;1.63;;;;;;;2.19;79.17;101447.28;5067785;28;20021;-66
2023/11/21 11:30:22;;;;;;;0.70;0.70;;;;;;;2.17;78.83;101454.03;5067694;28;20053;-65